sensor_id;sensor_type;location;lat;lon;timestamp;P1;durP1;ratioP1;P2;durP2;ratioP2
28022;SDS011;67403;50.104;8.758;2023-06-19T00:01:35;10.30;;;7.85;;
28022;SDS011;67403;50.104;8.758;2023-06-19T00:04:03;13.45;;;8.25;;
28022;SDS011;67403;50.104;8.758;2023-06-19T00:06:30;10.57;;;8.23;;
28022;SDS011;67403;50.104;8.758;2023-06-19T00:08:58;10.40;;;8.70;;
28022;SDS011;67403;50.104;8.758;2023-06-19T00:11:25;9.82;;;7.95;;
28022;SDS011;67403;50.104;8.758;2023-06-19T00:13:52;11.68;;;8.25;;
28022;SDS011;67403;50.104;8.758;2023-06-19T00:16:20;11.00;;;8.43;;
28022;SDS011;67403;50.104;8.758;2023-06-19T00:18:51;12.13;;;7.97;;
28022;SDS011;67403;50.104;8.758;2023-06-19T00:21:22;10.82;;;8.38;;
28022;SDS011;67403;50.104;8.758;2023-06-19T00:23:49;9.43;;;8.05;;
28022;SDS011;67403;50.104;8.758;2023-06-19T00:26:17;11.05;;;8.35;;
28022;SDS011;67403;50.104;8.758;2023-06-19T00:28:47;12.00;;;8.20;;
28022;SDS011;67403;50.104;8.758;2023-06-19T00:31:15;11.00;;;8.25;;
28022;SDS011;67403;50.104;8.758;2023-06-19T00:33:43;10.38;;;8.18;;
28022;SDS011;67403;50.104;8.758;2023-06-19T00:36:12;13.02;;;9.40;;
28022;SDS011;67403;50.104;8.758;2023-06-19T00:38:40;9.50;;;8.40;;
28022;SDS011;67403;50.104;8.758;2023-06-19T00:41:08;10.63;;;8.20;;
28022;SDS011;67403;50.104;8.758;2023-06-19T00:43:35;12.40;;;8.65;;
28022;SDS011;67403;50.104;8.758;2023-06-19T00:46:03;12.15;;;8.13;;
28022;SDS011;67403;50.104;8.758;2023-06-19T00:48:31;11.77;;;8.60;;
28022;SDS011;67403;50.104;8.758;2023-06-19T00:50:59;9.45;;;7.88;;
28022;SDS011;67403;50.104;8.758;2023-06-19T00:53:27;10.57;;;8.35;;
28022;SDS011;67403;50.104;8.758;2023-06-19T00:55:55;13.25;;;8.00;;
28022;SDS011;67403;50.104;8.758;2023-06-19T00:58:23;10.38;;;8.15;;
28022;SDS011;67403;50.104;8.758;2023-06-19T01:00:51;11.10;;;7.93;;
28022;SDS011;67403;50.104;8.758;2023-06-19T01:03:18;10.05;;;7.18;;
28022;SDS011;67403;50.104;8.758;2023-06-19T01:05:46;10.57;;;8.05;;
28022;SDS011;67403;50.104;8.758;2023-06-19T01:08:14;10.48;;;8.20;;
28022;SDS011;67403;50.104;8.758;2023-06-19T01:10:49;11.80;;;8.60;;
28022;SDS011;67403;50.104;8.758;2023-06-19T01:13:19;10.88;;;8.63;;
28022;SDS011;67403;50.104;8.758;2023-06-19T01:15:47;11.63;;;8.50;;
28022;SDS011;67403;50.104;8.758;2023-06-19T01:18:14;9.93;;;7.97;;
28022;SDS011;67403;50.104;8.758;2023-06-19T01:20:43;9.75;;;7.97;;
28022;SDS011;67403;50.104;8.758;2023-06-19T01:23:11;10.75;;;8.23;;
28022;SDS011;67403;50.104;8.758;2023-06-19T01:25:39;9.90;;;8.00;;
28022;SDS011;67403;50.104;8.758;2023-06-19T01:28:07;9.48;;;7.93;;
28022;SDS011;67403;50.104;8.758;2023-06-19T01:30:36;10.45;;;8.02;;
28022;SDS011;67403;50.104;8.758;2023-06-19T01:33:05;10.07;;;8.18;;
28022;SDS011;67403;50.104;8.758;2023-06-19T01:35:34;8.70;;;7.80;;
28022;SDS011;67403;50.104;8.758;2023-06-19T01:38:02;10.02;;;7.93;;
28022;SDS011;67403;50.104;8.758;2023-06-19T01:40:30;12.68;;;8.57;;
28022;SDS011;67403;50.104;8.758;2023-06-19T01:42:58;10.97;;;8.30;;
28022;SDS011;67403;50.104;8.758;2023-06-19T01:45:27;12.02;;;8.15;;
28022;SDS011;67403;50.104;8.758;2023-06-19T01:47:55;10.35;;;8.38;;
28022;SDS011;67403;50.104;8.758;2023-06-19T01:50:22;11.52;;;8.38;;
28022;SDS011;67403;50.104;8.758;2023-06-19T01:52:50;10.65;;;8.43;;
28022;SDS011;67403;50.104;8.758;2023-06-19T01:55:17;10.35;;;8.65;;
28022;SDS011;67403;50.104;8.758;2023-06-19T01:57:46;10.18;;;8.35;;
28022;SDS011;67403;50.104;8.758;2023-06-19T02:00:13;11.07;;;8.23;;
28022;SDS011;67403;50.104;8.758;2023-06-19T02:02:41;12.10;;;8.52;;
28022;SDS011;67403;50.104;8.758;2023-06-19T02:05:08;10.57;;;8.68;;
28022;SDS011;67403;50.104;8.758;2023-06-19T02:07:35;10.90;;;9.00;;
28022;SDS011;67403;50.104;8.758;2023-06-19T02:10:03;9.90;;;7.90;;
28022;SDS011;67403;50.104;8.758;2023-06-19T02:12:30;10.95;;;8.85;;
28022;SDS011;67403;50.104;8.758;2023-06-19T02:14:59;11.40;;;8.95;;
28022;SDS011;67403;50.104;8.758;2023-06-19T02:17:26;11.52;;;8.35;;
28022;SDS011;67403;50.104;8.758;2023-06-19T02:19:53;10.98;;;9.00;;
28022;SDS011;67403;50.104;8.758;2023-06-19T02:22:20;10.88;;;8.88;;
28022;SDS011;67403;50.104;8.758;2023-06-19T02:24:48;11.25;;;8.98;;
28022;SDS011;67403;50.104;8.758;2023-06-19T02:27:15;9.55;;;8.55;;
28022;SDS011;67403;50.104;8.758;2023-06-19T02:29:42;11.43;;;8.50;;
28022;SDS011;67403;50.104;8.758;2023-06-19T02:32:11;13.43;;;9.82;;
28022;SDS011;67403;50.104;8.758;2023-06-19T02:34:38;15.40;;;9.02;;
28022;SDS011;67403;50.104;8.758;2023-06-19T02:37:05;10.18;;;8.38;;
28022;SDS011;67403;50.104;8.758;2023-06-19T02:39:33;13.15;;;9.13;;
28022;SDS011;67403;50.104;8.758;2023-06-19T02:42:00;11.73;;;9.13;;
28022;SDS011;67403;50.104;8.758;2023-06-19T02:44:28;12.77;;;9.18;;
28022;SDS011;67403;50.104;8.758;2023-06-19T02:46:55;11.05;;;8.90;;
28022;SDS011;67403;50.104;8.758;2023-06-19T02:49:24;11.38;;;8.88;;
28022;SDS011;67403;50.104;8.758;2023-06-19T02:51:51;12.82;;;9.73;;
28022;SDS011;67403;50.104;8.758;2023-06-19T02:54:18;13.63;;;9.35;;
28022;SDS011;67403;50.104;8.758;2023-06-19T02:56:45;13.10;;;9.70;;
28022;SDS011;67403;50.104;8.758;2023-06-19T02:59:12;13.52;;;9.60;;
28022;SDS011;67403;50.104;8.758;2023-06-19T03:01:40;10.70;;;9.10;;
28022;SDS011;67403;50.104;8.758;2023-06-19T03:04:07;10.73;;;8.77;;
28022;SDS011;67403;50.104;8.758;2023-06-19T03:06:36;14.40;;;10.18;;
28022;SDS011;67403;50.104;8.758;2023-06-19T03:09:05;12.98;;;9.43;;
28022;SDS011;67403;50.104;8.758;2023-06-19T03:11:37;11.95;;;8.77;;
28022;SDS011;67403;50.104;8.758;2023-06-19T03:14:04;11.57;;;9.32;;
28022;SDS011;67403;50.104;8.758;2023-06-19T03:16:33;13.93;;;8.95;;
28022;SDS011;67403;50.104;8.758;2023-06-19T03:19:00;13.65;;;9.82;;
28022;SDS011;67403;50.104;8.758;2023-06-19T03:21:27;13.15;;;10.13;;
28022;SDS011;67403;50.104;8.758;2023-06-19T03:23:56;11.82;;;8.85;;
28022;SDS011;67403;50.104;8.758;2023-06-19T03:26:23;11.50;;;9.32;;
28022;SDS011;67403;50.104;8.758;2023-06-19T03:28:51;10.95;;;9.02;;
28022;SDS011;67403;50.104;8.758;2023-06-19T03:31:19;11.20;;;8.38;;
28022;SDS011;67403;50.104;8.758;2023-06-19T03:33:46;11.00;;;9.00;;
28022;SDS011;67403;50.104;8.758;2023-06-19T03:36:13;12.38;;;8.52;;
28022;SDS011;67403;50.104;8.758;2023-06-19T03:38:41;13.20;;;9.40;;
28022;SDS011;67403;50.104;8.758;2023-06-19T03:41:09;10.98;;;8.93;;
28022;SDS011;67403;50.104;8.758;2023-06-19T03:43:37;12.07;;;8.33;;
28022;SDS011;67403;50.104;8.758;2023-06-19T03:46:05;11.90;;;8.38;;
28022;SDS011;67403;50.104;8.758;2023-06-19T03:48:32;11.82;;;8.73;;
28022;SDS011;67403;50.104;8.758;2023-06-19T03:50:59;12.23;;;8.48;;
28022;SDS011;67403;50.104;8.758;2023-06-19T03:53:27;12.07;;;8.75;;
28022;SDS011;67403;50.104;8.758;2023-06-19T03:55:54;11.13;;;8.82;;
28022;SDS011;67403;50.104;8.758;2023-06-19T03:58:22;10.15;;;8.27;;
28022;SDS011;67403;50.104;8.758;2023-06-19T04:00:50;11.55;;;8.25;;
28022;SDS011;67403;50.104;8.758;2023-06-19T04:03:18;12.30;;;7.78;;
28022;SDS011;67403;50.104;8.758;2023-06-19T04:05:45;13.23;;;8.23;;
28022;SDS011;67403;50.104;8.758;2023-06-19T04:08:12;11.48;;;7.88;;
28022;SDS011;67403;50.104;8.758;2023-06-19T04:10:39;10.05;;;7.88;;
28022;SDS011;67403;50.104;8.758;2023-06-19T04:13:07;9.63;;;7.65;;
28022;SDS011;67403;50.104;8.758;2023-06-19T04:15:35;9.75;;;7.07;;
28022;SDS011;67403;50.104;8.758;2023-06-19T04:18:03;8.80;;;7.18;;
28022;SDS011;67403;50.104;8.758;2023-06-19T04:20:30;7.88;;;6.47;;
28022;SDS011;67403;50.104;8.758;2023-06-19T04:22:57;10.68;;;7.28;;
28022;SDS011;67403;50.104;8.758;2023-06-19T04:25:24;10.43;;;7.53;;
28022;SDS011;67403;50.104;8.758;2023-06-19T04:27:51;9.63;;;6.82;;
28022;SDS011;67403;50.104;8.758;2023-06-19T04:30:19;10.50;;;6.75;;
28022;SDS011;67403;50.104;8.758;2023-06-19T04:32:48;14.57;;;7.20;;
28022;SDS011;67403;50.104;8.758;2023-06-19T04:35:15;11.35;;;7.00;;
28022;SDS011;67403;50.104;8.758;2023-06-19T04:37:43;8.88;;;6.95;;
28022;SDS011;67403;50.104;8.758;2023-06-19T04:40:13;7.60;;;6.57;;
28022;SDS011;67403;50.104;8.758;2023-06-19T04:42:41;11.32;;;6.82;;
28022;SDS011;67403;50.104;8.758;2023-06-19T04:45:08;10.40;;;7.07;;
28022;SDS011;67403;50.104;8.758;2023-06-19T04:47:36;9.73;;;7.25;;
28022;SDS011;67403;50.104;8.758;2023-06-19T04:50:06;9.10;;;7.30;;
28022;SDS011;67403;50.104;8.758;2023-06-19T04:52:34;10.25;;;7.40;;
28022;SDS011;67403;50.104;8.758;2023-06-19T04:55:04;8.45;;;6.43;;
28022;SDS011;67403;50.104;8.758;2023-06-19T04:57:34;8.90;;;6.68;;
28022;SDS011;67403;50.104;8.758;2023-06-19T05:00:03;9.02;;;6.90;;
28022;SDS011;67403;50.104;8.758;2023-06-19T05:02:32;7.93;;;6.70;;
28022;SDS011;67403;50.104;8.758;2023-06-19T05:04:59;6.65;;;5.85;;
28022;SDS011;67403;50.104;8.758;2023-06-19T05:07:29;6.30;;;5.25;;
28022;SDS011;67403;50.104;8.758;2023-06-19T05:09:57;6.43;;;5.50;;
28022;SDS011;67403;50.104;8.758;2023-06-19T05:12:24;8.48;;;5.95;;
28022;SDS011;67403;50.104;8.758;2023-06-19T05:14:51;8.52;;;5.82;;
28022;SDS011;67403;50.104;8.758;2023-06-19T05:17:19;7.03;;;5.53;;
28022;SDS011;67403;50.104;8.758;2023-06-19T05:19:46;8.30;;;5.88;;
28022;SDS011;67403;50.104;8.758;2023-06-19T05:22:13;6.82;;;5.43;;
28022;SDS011;67403;50.104;8.758;2023-06-19T05:24:44;6.57;;;5.28;;
28022;SDS011;67403;50.104;8.758;2023-06-19T05:27:11;7.45;;;5.25;;
28022;SDS011;67403;50.104;8.758;2023-06-19T05:29:39;7.47;;;5.43;;
28022;SDS011;67403;50.104;8.758;2023-06-19T05:32:06;7.47;;;5.47;;
28022;SDS011;67403;50.104;8.758;2023-06-19T05:34:33;6.47;;;5.55;;
28022;SDS011;67403;50.104;8.758;2023-06-19T05:37:01;6.05;;;5.15;;
28022;SDS011;67403;50.104;8.758;2023-06-19T05:39:29;5.55;;;4.65;;
28022;SDS011;67403;50.104;8.758;2023-06-19T05:41:57;7.50;;;5.45;;
28022;SDS011;67403;50.104;8.758;2023-06-19T05:44:24;7.05;;;5.30;;
28022;SDS011;67403;50.104;8.758;2023-06-19T05:46:52;6.78;;;4.78;;
28022;SDS011;67403;50.104;8.758;2023-06-19T05:49:19;6.35;;;5.13;;
28022;SDS011;67403;50.104;8.758;2023-06-19T05:51:46;6.35;;;5.00;;
28022;SDS011;67403;50.104;8.758;2023-06-19T05:54:14;6.22;;;4.60;;
28022;SDS011;67403;50.104;8.758;2023-06-19T05:56:42;6.05;;;4.55;;
28022;SDS011;67403;50.104;8.758;2023-06-19T05:59:11;6.00;;;4.70;;
28022;SDS011;67403;50.104;8.758;2023-06-19T06:01:40;8.23;;;5.35;;
28022;SDS011;67403;50.104;8.758;2023-06-19T06:04:07;6.82;;;4.63;;
28022;SDS011;67403;50.104;8.758;2023-06-19T06:06:34;5.18;;;4.30;;
28022;SDS011;67403;50.104;8.758;2023-06-19T06:09:02;6.78;;;4.70;;
28022;SDS011;67403;50.104;8.758;2023-06-19T06:11:29;6.80;;;4.53;;
28022;SDS011;67403;50.104;8.758;2023-06-19T06:13:57;6.03;;;4.45;;
28022;SDS011;67403;50.104;8.758;2023-06-19T06:16:25;4.85;;;4.30;;
28022;SDS011;67403;50.104;8.758;2023-06-19T06:18:52;6.60;;;4.20;;
28022;SDS011;67403;50.104;8.758;2023-06-19T06:21:20;5.65;;;4.45;;
28022;SDS011;67403;50.104;8.758;2023-06-19T06:23:47;9.15;;;4.50;;
28022;SDS011;67403;50.104;8.758;2023-06-19T06:26:14;6.68;;;4.50;;
28022;SDS011;67403;50.104;8.758;2023-06-19T06:28:41;7.18;;;4.32;;
28022;SDS011;67403;50.104;8.758;2023-06-19T06:31:09;7.70;;;5.55;;
28022;SDS011;67403;50.104;8.758;2023-06-19T06:33:37;6.10;;;4.30;;
28022;SDS011;67403;50.104;8.758;2023-06-19T06:36:05;6.40;;;4.13;;
28022;SDS011;67403;50.104;8.758;2023-06-19T06:38:32;5.40;;;4.22;;
28022;SDS011;67403;50.104;8.758;2023-06-19T06:40:59;5.53;;;4.05;;
28022;SDS011;67403;50.104;8.758;2023-06-19T06:43:26;5.13;;;4.15;;
28022;SDS011;67403;50.104;8.758;2023-06-19T06:45:54;4.28;;;3.35;;
28022;SDS011;67403;50.104;8.758;2023-06-19T06:48:21;4.95;;;4.10;;
28022;SDS011;67403;50.104;8.758;2023-06-19T06:50:50;4.32;;;3.60;;
28022;SDS011;67403;50.104;8.758;2023-06-19T06:53:24;4.97;;;3.75;;
28022;SDS011;67403;50.104;8.758;2023-06-19T06:55:53;4.68;;;3.58;;
28022;SDS011;67403;50.104;8.758;2023-06-19T06:58:20;4.53;;;3.50;;
28022;SDS011;67403;50.104;8.758;2023-06-19T07:00:47;5.00;;;3.55;;
28022;SDS011;67403;50.104;8.758;2023-06-19T07:03:16;3.60;;;3.30;;
28022;SDS011;67403;50.104;8.758;2023-06-19T07:05:43;5.07;;;3.67;;
28022;SDS011;67403;50.104;8.758;2023-06-19T07:08:12;5.55;;;3.75;;
28022;SDS011;67403;50.104;8.758;2023-06-19T07:10:39;4.38;;;3.58;;
28022;SDS011;67403;50.104;8.758;2023-06-19T07:13:06;5.75;;;4.00;;
28022;SDS011;67403;50.104;8.758;2023-06-19T07:15:34;4.78;;;3.35;;
28022;SDS011;67403;50.104;8.758;2023-06-19T07:18:01;8.45;;;4.38;;
28022;SDS011;67403;50.104;8.758;2023-06-19T07:20:28;6.93;;;3.95;;
28022;SDS011;67403;50.104;8.758;2023-06-19T07:22:55;4.70;;;3.90;;
28022;SDS011;67403;50.104;8.758;2023-06-19T07:25:24;3.80;;;3.40;;
28022;SDS011;67403;50.104;8.758;2023-06-19T07:27:52;6.70;;;4.22;;
28022;SDS011;67403;50.104;8.758;2023-06-19T07:30:19;4.90;;;3.50;;
28022;SDS011;67403;50.104;8.758;2023-06-19T07:32:46;5.30;;;3.40;;
28022;SDS011;67403;50.104;8.758;2023-06-19T07:35:14;4.40;;;3.33;;
28022;SDS011;67403;50.104;8.758;2023-06-19T07:37:41;4.88;;;3.40;;
28022;SDS011;67403;50.104;8.758;2023-06-19T07:40:09;6.07;;;3.42;;
28022;SDS011;67403;50.104;8.758;2023-06-19T07:42:38;4.32;;;3.40;;
28022;SDS011;67403;50.104;8.758;2023-06-19T07:45:05;3.63;;;3.33;;
28022;SDS011;67403;50.104;8.758;2023-06-19T07:47:32;5.13;;;3.92;;
28022;SDS011;67403;50.104;8.758;2023-06-19T07:50:00;4.63;;;3.40;;
28022;SDS011;67403;50.104;8.758;2023-06-19T07:52:27;4.75;;;3.05;;
28022;SDS011;67403;50.104;8.758;2023-06-19T07:54:55;5.32;;;3.42;;
28022;SDS011;67403;50.104;8.758;2023-06-19T07:57:23;6.40;;;3.58;;
28022;SDS011;67403;50.104;8.758;2023-06-19T07:59:53;6.28;;;3.63;;
28022;SDS011;67403;50.104;8.758;2023-06-19T08:02:20;5.20;;;3.97;;
28022;SDS011;67403;50.104;8.758;2023-06-19T08:04:47;4.90;;;3.53;;
28022;SDS011;67403;50.104;8.758;2023-06-19T08:07:15;4.07;;;3.05;;
28022;SDS011;67403;50.104;8.758;2023-06-19T08:09:42;5.05;;;3.92;;
28022;SDS011;67403;50.104;8.758;2023-06-19T08:12:09;4.30;;;3.10;;
28022;SDS011;67403;50.104;8.758;2023-06-19T08:14:36;4.45;;;3.67;;
28022;SDS011;67403;50.104;8.758;2023-06-19T08:17:05;4.72;;;3.58;;
28022;SDS011;67403;50.104;8.758;2023-06-19T08:19:32;3.85;;;3.47;;
28022;SDS011;67403;50.104;8.758;2023-06-19T08:22:00;3.75;;;3.33;;
28022;SDS011;67403;50.104;8.758;2023-06-19T08:24:27;4.30;;;3.90;;
28022;SDS011;67403;50.104;8.758;2023-06-19T08:26:55;4.20;;;3.75;;
28022;SDS011;67403;50.104;8.758;2023-06-19T08:29:22;5.20;;;3.65;;
28022;SDS011;67403;50.104;8.758;2023-06-19T08:31:49;5.22;;;3.72;;
28022;SDS011;67403;50.104;8.758;2023-06-19T08:34:18;5.38;;;3.72;;
28022;SDS011;67403;50.104;8.758;2023-06-19T08:36:45;5.78;;;3.60;;
28022;SDS011;67403;50.104;8.758;2023-06-19T08:39:13;4.13;;;3.42;;
28022;SDS011;67403;50.104;8.758;2023-06-19T08:41:40;3.67;;;3.25;;
28022;SDS011;67403;50.104;8.758;2023-06-19T08:44:07;5.80;;;4.10;;
28022;SDS011;67403;50.104;8.758;2023-06-19T08:46:35;6.25;;;3.78;;
28022;SDS011;67403;50.104;8.758;2023-06-19T08:49:03;21.80;;;14.90;;
28022;SDS011;67403;50.104;8.758;2023-06-19T08:51:32;8.65;;;7.25;;
28022;SDS011;67403;50.104;8.758;2023-06-19T08:54:00;5.00;;;4.35;;
28022;SDS011;67403;50.104;8.758;2023-06-19T08:56:28;5.50;;;3.97;;
28022;SDS011;67403;50.104;8.758;2023-06-19T08:59:07;4.75;;;4.13;;
28022;SDS011;67403;50.104;8.758;2023-06-19T09:01:35;5.72;;;4.40;;
28022;SDS011;67403;50.104;8.758;2023-06-19T09:04:07;4.93;;;4.47;;
28022;SDS011;67403;50.104;8.758;2023-06-19T09:06:36;4.95;;;3.97;;
28022;SDS011;67403;50.104;8.758;2023-06-19T09:09:13;6.15;;;3.97;;
28022;SDS011;67403;50.104;8.758;2023-06-19T09:11:40;5.40;;;4.15;;
28022;SDS011;67403;50.104;8.758;2023-06-19T09:14:09;7.65;;;4.50;;
28022;SDS011;67403;50.104;8.758;2023-06-19T09:16:38;7.65;;;3.67;;
28022;SDS011;67403;50.104;8.758;2023-06-19T09:19:05;4.95;;;3.75;;
28022;SDS011;67403;50.104;8.758;2023-06-19T09:21:35;5.22;;;4.00;;
28022;SDS011;67403;50.104;8.758;2023-06-19T09:24:05;5.63;;;4.53;;
28022;SDS011;67403;50.104;8.758;2023-06-19T09:26:32;4.25;;;3.85;;
28022;SDS011;67403;50.104;8.758;2023-06-19T09:29:09;4.32;;;3.92;;
28022;SDS011;67403;50.104;8.758;2023-06-19T09:31:36;4.95;;;3.88;;
28022;SDS011;67403;50.104;8.758;2023-06-19T09:34:04;5.47;;;4.35;;
28022;SDS011;67403;50.104;8.758;2023-06-19T09:36:32;5.43;;;3.95;;
28022;SDS011;67403;50.104;8.758;2023-06-19T09:39:00;5.70;;;4.10;;
28022;SDS011;67403;50.104;8.758;2023-06-19T09:41:30;5.40;;;4.50;;
28022;SDS011;67403;50.104;8.758;2023-06-19T09:43:58;5.17;;;4.43;;
28022;SDS011;67403;50.104;8.758;2023-06-19T09:46:26;4.70;;;4.20;;
28022;SDS011;67403;50.104;8.758;2023-06-19T09:48:58;5.00;;;4.28;;
28022;SDS011;67403;50.104;8.758;2023-06-19T09:51:30;7.97;;;5.50;;
28022;SDS011;67403;50.104;8.758;2023-06-19T09:53:58;5.88;;;3.95;;
28022;SDS011;67403;50.104;8.758;2023-06-19T09:56:27;4.95;;;4.00;;
28022;SDS011;67403;50.104;8.758;2023-06-19T09:58:57;4.28;;;3.78;;
28022;SDS011;67403;50.104;8.758;2023-06-19T10:01:25;6.00;;;4.28;;
28022;SDS011;67403;50.104;8.758;2023-06-19T10:04:01;6.85;;;4.43;;
28022;SDS011;67403;50.104;8.758;2023-06-19T10:06:29;5.30;;;4.18;;
28022;SDS011;67403;50.104;8.758;2023-06-19T10:09:05;3.95;;;3.55;;
28022;SDS011;67403;50.104;8.758;2023-06-19T10:11:43;5.15;;;3.88;;
28022;SDS011;67403;50.104;8.758;2023-06-19T10:14:13;4.18;;;3.70;;
28022;SDS011;67403;50.104;8.758;2023-06-19T10:16:43;6.88;;;4.03;;
28022;SDS011;67403;50.104;8.758;2023-06-19T10:19:11;5.30;;;3.90;;
28022;SDS011;67403;50.104;8.758;2023-06-19T10:21:43;6.20;;;4.18;;
28022;SDS011;67403;50.104;8.758;2023-06-19T10:24:13;4.10;;;3.70;;
28022;SDS011;67403;50.104;8.758;2023-06-19T10:26:40;4.75;;;3.75;;
28022;SDS011;67403;50.104;8.758;2023-06-19T10:29:15;5.32;;;3.83;;
28022;SDS011;67403;50.104;8.758;2023-06-19T10:31:43;4.43;;;3.80;;
28022;SDS011;67403;50.104;8.758;2023-06-19T10:34:10;4.65;;;3.95;;
28022;SDS011;67403;50.104;8.758;2023-06-19T10:36:38;4.93;;;4.13;;
28022;SDS011;67403;50.104;8.758;2023-06-19T10:39:05;5.70;;;4.20;;
28022;SDS011;67403;50.104;8.758;2023-06-19T10:41:32;4.38;;;3.50;;
28022;SDS011;67403;50.104;8.758;2023-06-19T10:44:01;4.22;;;3.83;;
28022;SDS011;67403;50.104;8.758;2023-06-19T10:46:31;6.85;;;3.50;;
28022;SDS011;67403;50.104;8.758;2023-06-19T10:49:01;6.10;;;4.10;;
28022;SDS011;67403;50.104;8.758;2023-06-19T10:51:29;7.60;;;3.97;;
28022;SDS011;67403;50.104;8.758;2023-06-19T10:53:57;4.13;;;3.70;;
28022;SDS011;67403;50.104;8.758;2023-06-19T10:56:24;5.40;;;3.60;;
28022;SDS011;67403;50.104;8.758;2023-06-19T10:58:56;5.35;;;3.28;;
28022;SDS011;67403;50.104;8.758;2023-06-19T11:01:32;5.68;;;3.30;;
28022;SDS011;67403;50.104;8.758;2023-06-19T11:04:01;4.30;;;3.67;;
28022;SDS011;67403;50.104;8.758;2023-06-19T11:06:28;5.65;;;4.38;;
28022;SDS011;67403;50.104;8.758;2023-06-19T11:08:55;4.28;;;3.80;;
28022;SDS011;67403;50.104;8.758;2023-06-19T11:11:23;4.47;;;4.07;;
28022;SDS011;67403;50.104;8.758;2023-06-19T11:13:50;4.30;;;3.90;;
28022;SDS011;67403;50.104;8.758;2023-06-19T11:16:17;5.55;;;3.88;;
28022;SDS011;67403;50.104;8.758;2023-06-19T11:18:46;4.10;;;3.70;;
28022;SDS011;67403;50.104;8.758;2023-06-19T11:21:13;4.95;;;3.88;;
28022;SDS011;67403;50.104;8.758;2023-06-19T11:23:40;4.28;;;3.88;;
28022;SDS011;67403;50.104;8.758;2023-06-19T11:26:14;7.97;;;3.67;;
28022;SDS011;67403;50.104;8.758;2023-06-19T11:28:47;4.53;;;3.80;;
28022;SDS011;67403;50.104;8.758;2023-06-19T11:31:14;11.10;;;7.38;;
28022;SDS011;67403;50.104;8.758;2023-06-19T11:33:42;5.13;;;4.50;;
28022;SDS011;67403;50.104;8.758;2023-06-19T11:36:10;5.35;;;4.07;;
28022;SDS011;67403;50.104;8.758;2023-06-19T11:38:37;6.32;;;3.83;;
28022;SDS011;67403;50.104;8.758;2023-06-19T11:41:06;4.38;;;3.75;;
28022;SDS011;67403;50.104;8.758;2023-06-19T11:43:34;4.60;;;3.88;;
28022;SDS011;67403;50.104;8.758;2023-06-19T11:46:02;5.38;;;3.78;;
28022;SDS011;67403;50.104;8.758;2023-06-19T11:48:29;5.70;;;3.70;;
28022;SDS011;67403;50.104;8.758;2023-06-19T11:50:56;3.65;;;3.35;;
28022;SDS011;67403;50.104;8.758;2023-06-19T11:53:25;4.28;;;3.72;;
28022;SDS011;67403;50.104;8.758;2023-06-19T11:55:52;5.05;;;3.97;;
28022;SDS011;67403;50.104;8.758;2023-06-19T11:58:19;4.38;;;3.92;;
28022;SDS011;67403;50.104;8.758;2023-06-19T12:00:47;4.70;;;3.70;;
28022;SDS011;67403;50.104;8.758;2023-06-19T12:03:15;4.40;;;3.90;;
28022;SDS011;67403;50.104;8.758;2023-06-19T12:05:42;4.38;;;3.97;;
28022;SDS011;67403;50.104;8.758;2023-06-19T12:08:10;3.90;;;3.50;;
28022;SDS011;67403;50.104;8.758;2023-06-19T12:10:38;3.72;;;3.20;;
28022;SDS011;67403;50.104;8.758;2023-06-19T12:13:05;4.13;;;3.55;;
28022;SDS011;67403;50.104;8.758;2023-06-19T12:15:33;5.07;;;3.20;;
28022;SDS011;67403;50.104;8.758;2023-06-19T12:18:00;6.63;;;3.63;;
28022;SDS011;67403;50.104;8.758;2023-06-19T12:20:29;3.80;;;3.40;;
28022;SDS011;67403;50.104;8.758;2023-06-19T12:22:56;9.23;;;3.80;;
28022;SDS011;67403;50.104;8.758;2023-06-19T12:25:23;4.07;;;3.67;;
28022;SDS011;67403;50.104;8.758;2023-06-19T12:27:52;3.90;;;3.58;;
28022;SDS011;67403;50.104;8.758;2023-06-19T12:30:19;6.82;;;3.53;;
28022;SDS011;67403;50.104;8.758;2023-06-19T12:32:46;4.38;;;3.95;;
28022;SDS011;67403;50.104;8.758;2023-06-19T12:35:14;4.25;;;3.85;;
28022;SDS011;67403;50.104;8.758;2023-06-19T12:37:43;4.47;;;4.07;;
28022;SDS011;67403;50.104;8.758;2023-06-19T12:40:11;3.97;;;3.60;;
28022;SDS011;67403;50.104;8.758;2023-06-19T12:42:38;3.78;;;3.45;;
28022;SDS011;67403;50.104;8.758;2023-06-19T12:45:07;4.53;;;3.80;;
28022;SDS011;67403;50.104;8.758;2023-06-19T12:47:35;5.13;;;4.10;;
28022;SDS011;67403;50.104;8.758;2023-06-19T12:50:02;3.70;;;3.40;;
28022;SDS011;67403;50.104;8.758;2023-06-19T12:52:29;4.30;;;3.75;;
28022;SDS011;67403;50.104;8.758;2023-06-19T12:54:57;3.85;;;3.47;;
28022;SDS011;67403;50.104;8.758;2023-06-19T12:57:26;3.80;;;3.50;;
28022;SDS011;67403;50.104;8.758;2023-06-19T12:59:53;4.38;;;3.58;;
28022;SDS011;67403;50.104;8.758;2023-06-19T13:02:22;3.67;;;3.17;;
28022;SDS011;67403;50.104;8.758;2023-06-19T13:04:49;4.95;;;3.30;;
28022;SDS011;67403;50.104;8.758;2023-06-19T13:07:16;3.60;;;3.30;;
28022;SDS011;67403;50.104;8.758;2023-06-19T13:09:44;3.60;;;3.13;;
28022;SDS011;67403;50.104;8.758;2023-06-19T13:12:11;3.90;;;3.50;;
28022;SDS011;67403;50.104;8.758;2023-06-19T13:14:38;3.78;;;3.25;;
28022;SDS011;67403;50.104;8.758;2023-06-19T13:17:07;4.27;;;3.47;;
28022;SDS011;67403;50.104;8.758;2023-06-19T13:19:36;4.13;;;3.03;;
28022;SDS011;67403;50.104;8.758;2023-06-19T13:22:03;4.00;;;3.60;;
28022;SDS011;67403;50.104;8.758;2023-06-19T13:24:30;3.80;;;3.50;;
28022;SDS011;67403;50.104;8.758;2023-06-19T13:26:57;3.95;;;3.38;;
28022;SDS011;67403;50.104;8.758;2023-06-19T13:29:25;3.72;;;2.90;;
28022;SDS011;67403;50.104;8.758;2023-06-19T13:31:52;3.63;;;3.28;;
28022;SDS011;67403;50.104;8.758;2023-06-19T13:34:19;3.22;;;2.90;;
28022;SDS011;67403;50.104;8.758;2023-06-19T13:36:48;2.85;;;2.60;;
28022;SDS011;67403;50.104;8.758;2023-06-19T13:39:16;3.97;;;3.45;;
28022;SDS011;67403;50.104;8.758;2023-06-19T13:41:44;3.63;;;2.90;;
28022;SDS011;67403;50.104;8.758;2023-06-19T13:44:11;2.90;;;2.70;;
28022;SDS011;67403;50.104;8.758;2023-06-19T13:46:39;3.15;;;2.85;;
28022;SDS011;67403;50.104;8.758;2023-06-19T13:49:06;3.58;;;3.10;;
28022;SDS011;67403;50.104;8.758;2023-06-19T13:51:33;3.65;;;3.13;;
28022;SDS011;67403;50.104;8.758;2023-06-19T13:54:02;3.83;;;3.20;;
28022;SDS011;67403;50.104;8.758;2023-06-19T13:56:29;3.10;;;2.80;;
28022;SDS011;67403;50.104;8.758;2023-06-19T13:58:57;4.63;;;3.28;;
28022;SDS011;67403;50.104;8.758;2023-06-19T14:01:24;3.60;;;2.88;;
28022;SDS011;67403;50.104;8.758;2023-06-19T14:03:52;6.05;;;4.60;;
28022;SDS011;67403;50.104;8.758;2023-06-19T14:06:19;5.93;;;3.17;;
28022;SDS011;67403;50.104;8.758;2023-06-19T14:08:46;3.42;;;3.00;;
28022;SDS011;67403;50.104;8.758;2023-06-19T14:11:15;3.70;;;3.28;;
28022;SDS011;67403;50.104;8.758;2023-06-19T14:13:42;2.72;;;2.53;;
28022;SDS011;67403;50.104;8.758;2023-06-19T14:16:09;4.30;;;2.90;;
28022;SDS011;67403;50.104;8.758;2023-06-19T14:18:37;3.05;;;2.75;;
28022;SDS011;67403;50.104;8.758;2023-06-19T14:21:04;3.22;;;2.90;;
28022;SDS011;67403;50.104;8.758;2023-06-19T14:23:31;2.90;;;2.60;;
28022;SDS011;67403;50.104;8.758;2023-06-19T14:25:59;3.42;;;2.75;;
28022;SDS011;67403;50.104;8.758;2023-06-19T14:28:28;3.53;;;2.80;;
28022;SDS011;67403;50.104;8.758;2023-06-19T14:30:56;2.60;;;2.40;;
28022;SDS011;67403;50.104;8.758;2023-06-19T14:33:23;3.30;;;3.00;;
28022;SDS011;67403;50.104;8.758;2023-06-19T14:35:50;3.25;;;2.65;;
28022;SDS011;67403;50.104;8.758;2023-06-19T14:38:17;3.20;;;2.90;;
28022;SDS011;67403;50.104;8.758;2023-06-19T14:40:45;4.30;;;2.70;;
28022;SDS011;67403;50.104;8.758;2023-06-19T14:43:12;3.50;;;2.80;;
28022;SDS011;67403;50.104;8.758;2023-06-19T14:45:41;3.50;;;2.60;;
28022;SDS011;67403;50.104;8.758;2023-06-19T14:48:08;2.83;;;2.63;;